Johnsburg, IL

12:24 AM CDT on September 30, 2016 (GMT -0500)
Pheasant Valley | | Change Station

Elev 768 ft 42.35 °N, 88.30 °W | Updated 1 second ago

Overcast
Overcast
61.2 °F
Feels Like 61.2 °F
N
0.2
Wind Variable Wind from NE
Gusts 2.5 mph

Today
High -- | Low -- °F
--% Chance of Precip.
Yesterday
High -- | Low -- °F
Precip. -- in
Pressure 30.21 in
Visibility 10.0 miles
Clouds Few 1000 ft
Scattered Clouds 1700 ft
Overcast 2400 ft
Dew Point 58 °F
Humidity 91%
Rainfall 0.00 in
Snow Depth Not available.
6:49 AM 6:35 PM
Waning Crescent, 1% visible
SPECI KUGN 300505Z AUTO 02007KT 10SM FEW010 SCT017 OVC024 16/14 A3021 RMK AO2 T01560144
Pressure 30.21 in
Visibility 10.0 miles
Clouds Few 1000 ft
Scattered Clouds 1700 ft
Overcast 2400 ft
Dew Point 58 °F
Humidity 91%
Rainfall 0.00 in
Snow Depth Not available.
6:49 AM 6:35 PM
Waning Crescent, 1% visible
SPECI KUGN 300505Z AUTO 02007KT 10SM FEW010 SCT017 OVC024 16/14 A3021 RMK AO2 T01560144

10-Day Weather Forecast

Almanac

Astronomy

Sep. 30, 2016 Rise Set
Actual Time
Civil Twilight
Nautical Twilight
Astronomical Twilight
Moon
Length of Visible Light
Length of Day
Tomorrow will be .
, % of the Moon is Illuminated

Today's Extremes

State Highs State Lows

Community

WunderPhotos

Upload Photos

1,942,665 photos uploaded!

WunderBlog® & News

Nearby

Air Quality

  Air Quality AQ Index Pollutant
Not available.

Snow Depth

Station Depth Elevation

Earthquake Activity

City Distance Mag. Time & Date
Minimum magnitude displayed is 2.5.

Coastal Water Temperatures

Place Temperature

Stations

Nearby Weather Stations

Station Location Temp. Windchill Dew Point Humidity Wind Precip. Elev Updated Type
                   

Watches & Warnings

There are currently no watches in effect.